Time;durP1;ratioP1;P1;durP2;ratioP2;P2;SDS_P1;SDS_P2;PMS_P1;PMS_P2;Temp;Humidity;BMP_temperature;BMP_pressure;BME280_temperature;BME280_humidity;BME280_pressure;Samples;Min_cycle;Max_cycle;Signal;HPM_P1;HPM_P2
2024/04/26 00:02:17;;;;;;;10.50;7.68;;;;;;;11.66;52.83;100071.81;5317446;26;122467;-70
2024/04/26 00:04:45;;;;;;;11.40;7.72;;;;;;;11.65;53.26;100065.66;5288035;26;112402;-70
2024/04/26 00:07:12;;;;;;;11.93;7.25;;;;;;;11.65;53.15;100070.09;5321392;26;112473;-70
2024/04/26 00:09:40;;;;;;;13.32;7.90;;;;;;;11.63;53.35;100070.19;5294531;26;121730;-70
2024/04/26 00:12:07;;;;;;;13.77;8.55;;;;;;;11.62;53.33;100054.38;5295938;26;122629;-71
2024/04/26 00:14:35;;;;;;;14.18;8.88;;;;;;;11.61;53.41;100063.28;5319809;26;113274;-70
2024/04/26 00:17:02;;;;;;;12.32;8.15;;;;;;;11.57;53.35;100056.47;5323323;26;112805;-70
2024/04/26 00:19:30;;;;;;;12.88;8.90;;;;;;;11.56;53.49;100054.75;5331378;26;122551;-70
2024/04/26 00:21:57;;;;;;;14.13;9.63;;;;;;;11.54;53.56;100056.66;5330100;26;122192;-70
2024/04/26 00:24:25;;;;;;;14.90;9.60;;;;;;;11.52;53.63;100054.09;5319760;26;113562;-71
2024/04/26 00:26:52;;;;;;;15.82;9.48;;;;;;;11.52;53.79;100055.91;5327727;26;113312;-71
2024/04/26 00:29:20;;;;;;;20.63;10.02;;;;;;;11.52;53.74;100053.25;5298670;26;122332;-70
2024/04/26 00:31:47;;;;;;;16.95;9.55;;;;;;;11.54;54.02;100046.03;5299907;26;122285;-70
2024/04/26 00:34:15;;;;;;;15.88;9.90;;;;;;;11.54;53.95;100052.19;5293349;26;111710;-70
2024/04/26 00:36:42;;;;;;;16.50;9.50;;;;;;;11.54;53.80;100051.34;5331870;26;112364;-70
2024/04/26 00:39:10;;;;;;;13.98;8.30;;;;;;;11.55;54.01;100047.78;5319237;26;121351;-71
2024/04/26 00:41:37;;;;;;;16.35;9.10;;;;;;;11.55;53.92;100053.06;5326720;26;122264;-70
2024/04/26 00:44:11;;;;;;;13.82;8.55;;;;;;;11.53;54.18;100060.25;5324373;26;112864;-70
2024/04/26 00:46:43;;;;;;;15.13;9.10;;;;;;;11.50;54.05;100071.91;5329981;26;112473;-70
2024/04/26 00:49:11;;;;;;;16.40;9.23;;;;;;;11.47;54.01;100067.66;5325194;26;122449;-70
2024/04/26 00:51:39;;;;;;;15.43;8.90;;;;;;;11.42;54.25;100069.72;5323774;26;122005;-70
2024/04/26 00:54:07;;;;;;;13.38;9.07;;;;;;;11.39;54.26;100059.28;5315676;26;112765;-70
2024/04/26 00:56:35;;;;;;;15.90;8.73;;;;;;;11.39;54.49;100069.91;5325430;26;112698;-71
2024/04/26 00:59:04;;;;;;;16.17;9.30;;;;;;;11.40;54.63;100092.81;5323859;26;122843;-71
2024/04/26 01:01:33;;;;;;;14.55;10.20;;;;;;;11.37;54.58;100093.00;5321127;26;122747;-71
2024/04/26 01:04:01;;;;;;;15.93;9.70;;;;;;;11.34;54.50;100082.59;5323901;26;112848;-71
2024/04/26 01:06:28;;;;;;;15.43;9.63;;;;;;;11.30;54.70;100081.06;5324120;26;112999;-72
2024/04/26 01:08:56;;;;;;;15.55;9.02;;;;;;;11.28;54.81;100082.94;5300816;26;122265;-71
2024/04/26 01:11:23;;;;;;;13.52;9.10;;;;;;;11.26;55.02;100074.25;5325389;26;122140;-71
2024/04/26 01:13:52;;;;;;;14.13;9.85;;;;;;;11.27;54.89;100078.59;5324913;26;114265;-71
2024/04/26 01:16:20;;;;;;;15.18;9.38;;;;;;;11.30;55.06;100070.44;5321190;26;113377;-71
2024/04/26 01:18:47;;;;;;;19.23;10.38;;;;;;;11.31;55.09;100074.81;5326606;26;123096;-71
2024/04/26 01:21:16;;;;;;;14.88;9.80;;;;;;;11.33;54.96;100075.56;5323714;26;122159;-71
2024/04/26 01:23:43;;;;;;;14.10;9.35;;;;;;;11.34;54.77;100077.31;5331991;26;112446;-70
2024/04/26 01:26:11;;;;;;;14.68;10.10;;;;;;;11.34;54.92;100066.69;5318514;26;113522;-70
2024/04/26 01:28:38;;;;;;;13.90;9.40;;;;;;;11.34;54.92;100066.69;5329921;26;122335;-70
2024/04/26 01:31:06;;;;;;;13.80;9.50;;;;;;;11.35;55.05;100072.84;5324398;26;122041;-70
2024/04/26 01:33:33;;;;;;;15.90;10.20;;;;;;;11.34;54.99;100061.38;5316507;26;113494;-72
2024/04/26 01:36:01;;;;;;;13.35;9.68;;;;;;;11.35;54.84;100068.38;5286836;26;112565;-70
2024/04/26 01:38:29;;;;;;;15.25;9.38;;;;;;;11.35;55.02;100067.53;5291477;26;121134;-70
2024/04/26 01:40:56;;;;;;;19.80;10.57;;;;;;;11.35;55.20;100073.69;5321474;26;122074;-71
2024/04/26 01:43:24;;;;;;;15.18;10.40;;;;;;;11.34;55.06;100079.94;5321732;26;112678;-71
2024/04/26 01:45:51;;;;;;;16.73;10.18;;;;;;;11.33;55.06;100080.88;5325251;26;112460;-70
2024/04/26 01:48:19;;;;;;;15.60;11.15;;;;;;;11.34;55.04;100074.66;5321236;26;122618;-71
2024/04/26 01:50:47;;;;;;;15.50;11.05;;;;;;;11.34;55.20;100077.31;5316278;26;122540;-71
2024/04/26 01:53:14;;;;;;;18.63;10.57;;;;;;;11.34;55.25;100074.66;5317419;26;112459;-70
2024/04/26 01:55:41;;;;;;;16.95;10.50;;;;;;;11.34;55.11;100072.00;5286968;26;111518;-70
2024/04/26 01:58:09;;;;;;;16.25;10.90;;;;;;;11.33;55.20;100075.56;5292821;26;121998;-71
2024/04/26 02:00:36;;;;;;;15.85;10.65;;;;;;;11.33;55.14;100075.56;5324380;26;122421;-71
2024/04/26 02:03:04;;;;;;;16.48;11.50;;;;;;;11.29;55.14;100074.91;5323067;26;113350;-71
2024/04/26 02:05:31;;;;;;;18.48;11.25;;;;;;;11.32;55.29;100079.19;5321532;26;114266;-71
2024/04/26 02:08:00;;;;;;;17.52;10.70;;;;;;;11.30;55.40;100081.06;5321501;26;122202;-71
2024/04/26 02:10:27;;;;;;;16.27;11.15;;;;;;;11.29;55.48;100074.91;5326658;26;122389;-71
2024/04/26 02:12:55;;;;;;;16.77;11.27;;;;;;;11.28;55.49;100077.66;5319779;26;112636;-71
2024/04/26 02:15:22;;;;;;;17.95;10.77;;;;;;;11.31;55.54;100066.88;5323537;26;112928;-71
2024/04/26 02:17:50;;;;;;;18.70;10.57;;;;;;;11.31;55.59;100066.88;5315017;26;122392;-71
2024/04/26 02:20:18;;;;;;;16.52;10.88;;;;;;;11.31;55.57;100061.56;5266135;26;121936;-71
2024/04/26 02:22:45;;;;;;;15.63;11.00;;;;;;;11.32;55.64;100071.25;5320083;26;113092;-71
2024/04/26 02:25:13;;;;;;;16.23;10.38;;;;;;;11.31;55.67;100072.16;5325989;26;112616;-71
2024/04/26 02:27:40;;;;;;;17.75;11.32;;;;;;;11.32;55.72;100071.25;5322485;26;122407;-71
2024/04/26 02:30:08;;;;;;;15.40;10.27;;;;;;;11.34;55.72;100072.00;5330287;26;123017;-70
2024/04/26 02:32:36;;;;;;;14.98;10.32;;;;;;;11.33;55.75;100064.97;5323536;26;112625;-71
2024/04/26 02:35:04;;;;;;;18.25;10.70;;;;;;;11.32;55.91;100071.25;5326002;26;112649;-71
2024/04/26 02:37:31;;;;;;;18.65;10.80;;;;;;;11.32;55.94;100084.50;5322163;26;122140;-71
2024/04/26 02:39:59;;;;;;;14.65;10.27;;;;;;;11.32;55.94;100083.63;5329116;26;122573;-71
2024/04/26 02:42:26;;;;;;;15.07;10.20;;;;;;;11.30;55.96;100078.41;5296994;26;111702;-71
2024/04/26 02:44:53;;;;;;;16.77;10.20;;;;;;;11.32;56.02;100080.97;5295415;26;111509;-71
2024/04/26 02:47:21;;;;;;;21.27;10.63;;;;;;;11.32;56.04;100073.00;5323743;26;122354;-71
2024/04/26 02:49:49;;;;;;;17.48;10.15;;;;;;;11.32;56.23;100079.19;5298065;26;122439;-70
2024/04/26 02:52:16;;;;;;;16.00;10.75;;;;;;;11.33;56.10;100080.88;5323090;26;113611;-70
2024/04/26 02:54:44;;;;;;;18.52;10.93;;;;;;;11.32;56.10;100073.88;5327151;26;112577;-71
2024/04/26 02:57:11;;;;;;;15.05;10.00;;;;;;;11.33;55.84;100070.28;5332487;26;124020;-71
2024/04/26 02:59:39;;;;;;;18.55;10.77;;;;;;;11.34;56.16;100072.00;5332890;26;122051;-71
2024/04/26 03:02:06;;;;;;;16.08;10.02;;;;;;;11.34;56.25;100077.31;5300235;26;111818;-71
2024/04/26 03:04:34;;;;;;;18.55;10.98;;;;;;;11.34;56.22;100074.66;5325337;26;112636;-70
2024/04/26 03:07:01;;;;;;;18.77;11.05;;;;;;;11.34;56.16;100072.00;5329231;26;122031;-71
2024/04/26 03:09:30;;;;;;;15.05;10.32;;;;;;;11.33;56.35;100064.97;5288928;26;122932;-71
2024/04/26 03:11:59;;;;;;;16.90;10.52;;;;;;;11.34;56.25;100066.69;5324694;26;112961;-71
2024/04/26 03:14:27;;;;;;;16.10;10.48;;;;;;;11.33;56.10;100064.97;5302420;26;112655;-70
2024/04/26 03:16:54;;;;;;;16.88;10.35;;;;;;;11.34;56.48;100065.81;5300191;26;122424;-70
2024/04/26 03:19:24;;;;;;;16.13;10.00;;;;;;;11.33;56.27;100058.81;5285985;26;122234;-70
2024/04/26 03:21:51;;;;;;;17.10;10.82;;;;;;;11.34;56.23;100050.78;5331984;26;112410;-71
2024/04/26 03:24:19;;;;;;;17.00;10.77;;;;;;;11.34;56.36;100056.09;5332490;26;113971;-70
2024/04/26 03:26:46;;;;;;;16.95;11.20;;;;;;;11.34;56.37;100056.09;5327470;26;122053;-71
2024/04/26 03:29:14;;;;;;;17.45;10.70;;;;;;;11.34;56.46;100061.38;5324168;26;121904;-71
2024/04/26 03:31:41;;;;;;;16.55;10.93;;;;;;;11.34;56.25;100061.38;5319775;26;112730;-70
2024/04/26 03:34:09;;;;;;;18.13;11.30;;;;;;;11.34;56.42;100056.09;5328213;26;112756;-70
2024/04/26 03:36:36;;;;;;;19.10;11.88;;;;;;;11.35;56.38;100063.09;5324658;26;122124;-70
2024/04/26 03:39:04;;;;;;;16.85;10.50;;;;;;;11.34;56.58;100050.78;5328880;26;122850;-70
2024/04/26 03:41:31;;;;;;;18.73;11.05;;;;;;;11.34;56.61;100064.03;5327249;26;114070;-70
2024/04/26 03:43:59;;;;;;;17.27;10.90;;;;;;;11.34;56.53;100066.69;5301215;26;113574;-70
2024/04/26 03:46:26;;;;;;;17.95;11.07;;;;;;;11.34;56.60;100061.38;5322939;26;122091;-70
2024/04/26 03:48:54;;;;;;;17.38;11.07;;;;;;;11.34;56.61;100061.38;5292959;26;122313;-70
2024/04/26 03:51:21;;;;;;;15.48;11.23;;;;;;;11.33;56.67;100064.97;5292993;26;111681;-70
2024/04/26 03:53:49;;;;;;;16.25;11.02;;;;;;;11.34;56.62;100066.69;5319618;26;113735;-70
2024/04/26 03:56:17;;;;;;;18.63;11.68;;;;;;;11.34;56.64;100069.34;5321993;26;96468;-71
2024/04/26 03:58:45;;;;;;;17.90;11.55;;;;;;;11.34;56.67;100065.81;5320999;26;122005;-71
2024/04/26 04:01:12;;;;;;;18.10;11.50;;;;;;;11.34;56.78;100066.69;5330407;26;112558;-71
2024/04/26 04:03:40;;;;;;;17.83;11.70;;;;;;;11.33;56.80;100059.69;5325261;26;112661;-70
2024/04/26 04:06:08;;;;;;;18.75;11.32;;;;;;;11.34;56.88;100056.09;5317258;26;121831;-71
2024/04/26 04:08:35;;;;;;;17.48;11.35;;;;;;;11.34;56.90;100061.38;5288881;26;120913;-71
2024/04/26 04:11:04;;;;;;;17.85;11.25;;;;;;;11.35;57.03;100057.78;5318004;26;112786;-70
2024/04/26 04:13:31;;;;;;;19.25;11.70;;;;;;;11.35;56.74;100057.78;5322484;26;112351;-70
2024/04/26 04:15:59;;;;;;;20.38;11.88;;;;;;;11.32;56.78;100052.69;5326552;26;122577;-70
2024/04/26 04:18:27;;;;;;;18.38;11.82;;;;;;;11.31;56.91;100056.25;5297302;26;122047;-70
2024/04/26 04:20:54;;;;;;;17.60;11.43;;;;;;;11.28;56.94;100053.78;5300268;26;112505;-70
2024/04/26 04:23:22;;;;;;;16.02;11.25;;;;;;;11.28;56.99;100051.13;5330769;26;112447;-70
2024/04/26 04:25:50;;;;;;;17.45;11.48;;;;;;;11.30;57.05;100054.53;5287549;26;122355;-70
2024/04/26 04:28:18;;;;;;;16.85;11.30;;;;;;;11.29;57.16;100047.56;5318000;26;122103;-71
2024/04/26 04:30:45;;;;;;;17.95;12.75;;;;;;;11.31;57.07;100050.97;5293674;26;112926;-71
2024/04/26 04:33:15;;;;;;;18.77;11.88;;;;;;;11.32;57.09;100063.28;5315342;26;113215;-70
2024/04/26 04:35:43;;;;;;;17.95;10.82;;;;;;;11.33;57.09;100061.47;5325674;26;123085;-70
2024/04/26 04:38:11;;;;;;;19.15;11.27;;;;;;;11.32;57.00;100068.59;5299368;26;121294;-70
2024/04/26 04:40:38;;;;;;;16.85;10.88;;;;;;;11.33;57.13;100064.97;5331051;26;112592;-70
2024/04/26 04:43:07;;;;;;;16.65;11.25;;;;;;;11.33;57.09;100059.69;5321057;26;113879;-70
2024/04/26 04:45:34;;;;;;;16.75;9.10;;;;;;;11.34;57.20;100072.00;5288321;26;121449;-70
2024/04/26 04:48:02;;;;;;;15.68;8.50;;;;;;;11.34;56.99;100071.13;5324399;26;122239;-70
2024/04/26 04:50:29;;;;;;;13.77;8.50;;;;;;;11.36;57.09;100075.41;5299898;26;112722;-70
2024/04/26 04:52:57;;;;;;;15.00;8.90;;;;;;;11.36;56.90;100078.06;5290725;26;113155;-70
2024/04/26 04:55:24;;;;;;;15.13;8.85;;;;;;;11.37;56.83;100082.41;5322427;26;122243;-71
2024/04/26 04:57:52;;;;;;;14.80;8.48;;;;;;;11.38;57.00;100078.81;5314103;26;122692;-71
2024/04/26 05:00:19;;;;;;;15.15;9.30;;;;;;;11.39;56.93;100077.84;5331084;26;112739;-70
2024/04/26 05:02:47;;;;;;;21.25;9.35;;;;;;;11.41;56.80;100081.25;5323925;26;113582;-71
2024/04/26 05:05:15;;;;;;;16.95;9.05;;;;;;;11.43;56.79;100082.03;5330756;26;122546;-70
2024/04/26 05:07:43;;;;;;;16.92;9.20;;;;;;;11.43;56.81;100082.03;5313095;26;122612;-70
2024/04/26 05:10:10;;;;;;;17.55;9.55;;;;;;;11.45;56.84;100084.56;5327649;26;113326;-71
2024/04/26 05:12:38;;;;;;;16.85;9.48;;;;;;;11.44;56.89;100082.88;5331837;26;112848;-71
2024/04/26 05:15:06;;;;;;;17.13;9.32;;;;;;;11.43;56.88;100076.75;5320341;26;122889;-71
2024/04/26 05:17:34;;;;;;;15.05;9.13;;;;;;;11.44;57.01;100088.19;5331377;26;121975;-71
2024/04/26 05:20:02;;;;;;;17.20;9.43;;;;;;;11.43;57.03;100087.34;5329260;26;114051;-71
2024/04/26 05:22:29;;;;;;;17.23;10.43;;;;;;;11.43;56.85;100090.00;5325419;26;113430;-71
2024/04/26 05:24:57;;;;;;;16.83;9.57;;;;;;;11.41;56.71;100086.56;5318352;26;122041;-70
2024/04/26 05:27:24;;;;;;;17.77;10.07;;;;;;;11.39;56.92;100090.25;5316802;26;122780;-71
2024/04/26 05:29:52;;;;;;;16.40;9.32;;;;;;;11.39;56.93;100096.41;5331411;26;112908;-71
2024/04/26 05:32:20;;;;;;;18.23;9.27;;;;;;;11.39;56.90;100100.88;5291895;26;112427;-70
2024/04/26 05:34:48;;;;;;;15.63;9.93;;;;;;;11.36;56.97;100101.91;5305579;26;122842;-70
2024/04/26 05:37:16;;;;;;;15.40;9.25;;;;;;;11.37;57.14;100100.94;5328154;26;122990;-70
2024/04/26 05:39:43;;;;;;;15.40;9.10;;;;;;;11.36;56.98;100101.91;5289330;26;111431;-69
2024/04/26 05:42:10;;;;;;;14.90;8.68;;;;;;;11.38;57.02;100105.31;5334883;26;112588;-70
2024/04/26 05:44:38;;;;;;;14.20;8.38;;;;;;;11.35;56.95;100100.19;5326925;26;122390;-70
2024/04/26 05:47:06;;;;;;;14.40;8.00;;;;;;;11.35;56.90;100100.19;5316996;26;121313;-69
2024/04/26 05:49:33;;;;;;;14.90;7.85;;;;;;;11.36;57.05;100107.22;5330931;26;112465;-69
2024/04/26 05:52:01;;;;;;;12.65;7.93;;;;;;;11.34;56.96;100114.41;5301804;26;112836;-70
2024/04/26 05:54:28;;;;;;;12.48;6.90;;;;;;;11.32;57.00;100116.31;5312680;26;122626;-69
2024/04/26 05:56:56;;;;;;;11.23;6.90;;;;;;;11.30;57.18;100118.16;5315183;26;122666;-70
2024/04/26 05:59:25;;;;;;;12.43;6.30;;;;;;;11.28;57.25;100117.41;5326260;26;112339;-69
2024/04/26 06:01:52;;;;;;;12.32;6.68;;;;;;;11.26;57.07;100127.25;5322243;26;112472;-70
2024/04/26 06:04:20;;;;;;;10.82;6.30;;;;;;;11.21;57.09;100122.25;5255565;26;121353;-70
2024/04/26 06:06:51;;;;;;;10.85;6.05;;;;;;;11.20;57.21;100127.63;5293104;26;121085;-69
2024/04/26 06:09:20;;;;;;;8.50;5.45;;;;;;;11.16;57.11;100126.09;5325835;26;114563;-70
2024/04/26 06:11:48;;;;;;;9.05;4.90;;;;;;;11.14;57.07;100128.84;5323734;26;113769;-69
2024/04/26 06:14:15;;;;;;;9.73;5.47;;;;;;;11.13;57.18;100142.19;5315760;26;122675;-70
2024/04/26 06:16:43;;;;;;;10.50;5.30;;;;;;;11.13;57.48;100139.53;5321198;26;122252;-70
2024/04/26 06:19:10;;;;;;;9.10;5.05;;;;;;;11.13;57.29;100142.19;5324943;26;112596;-67
2024/04/26 06:21:38;;;;;;;7.65;4.50;;;;;;;11.15;57.18;100142.94;5327711;26;112344;-68
2024/04/26 06:24:06;;;;;;;9.40;4.55;;;;;;;11.17;57.12;100146.34;5315697;26;122284;-68
2024/04/26 06:26:33;;;;;;;8.90;4.25;;;;;;;11.16;57.13;100152.59;5322716;26;121965;-67
2024/04/26 06:29:02;;;;;;;8.43;4.55;;;;;;;11.14;57.04;100149.19;5318451;26;112712;-68
2024/04/26 06:31:30;;;;;;;6.90;3.63;;;;;;;11.16;57.27;100149.97;5311771;26;112396;-68
2024/04/26 06:33:57;;;;;;;8.20;4.15;;;;;;;11.19;57.10;100152.41;5301264;26;121037;-68
2024/04/26 06:36:25;;;;;;;7.80;3.63;;;;;;;11.20;57.43;100156.78;5319334;26;122973;-68
2024/04/26 06:38:53;;;;;;;6.40;3.67;;;;;;;11.19;57.31;100163.88;5324441;26;112665;-68
2024/04/26 06:41:20;;;;;;;6.40;3.50;;;;;;;11.21;57.22;100161.16;5322825;26;112797;-67
2024/04/26 06:43:48;;;;;;;6.13;3.67;;;;;;;11.22;57.16;100162.84;5321670;26;122705;-68
2024/04/26 06:46:20;;;;;;;6.30;3.55;;;;;;;11.23;57.26;100165.41;5300020;26;122251;-68
2024/04/26 06:48:47;;;;;;;5.28;3.50;;;;;;;11.26;57.12;100169.66;5325462;26;112532;-68
2024/04/26 06:51:15;;;;;;;6.25;3.22;;;;;;;11.24;57.21;100167.09;5325802;26;112565;-69
2024/04/26 06:53:42;;;;;;;5.78;3.53;;;;;;;11.25;57.27;100179.41;5317734;26;122151;-68
2024/04/26 06:56:10;;;;;;;5.60;3.47;;;;;;;11.25;57.25;100173.28;5289070;26;121099;-68
2024/04/26 06:58:37;;;;;;;6.07;3.47;;;;;;;11.27;57.20;100184.63;5333480;26;113872;-66
2024/04/26 07:01:04;;;;;;;6.30;3.78;;;;;;;11.28;57.21;100191.63;5322473;26;114098;-66
2024/04/26 07:03:41;;;;;;;5.00;3.20;;;;;;;11.29;57.30;100190.69;5319276;26;121886;-66
2024/04/26 07:06:09;;;;;;;5.87;3.13;;;;;;;11.32;57.35;100190.53;5319576;26;123473;-65
2024/04/26 07:08:36;;;;;;;5.28;3.13;;;;;;;11.36;57.27;100192.06;5289683;26;112870;-65
2024/04/26 07:11:06;;;;;;;6.50;3.75;;;;;;;11.38;57.31;100189.31;5321305;26;112505;-66
2024/04/26 07:13:34;;;;;;;5.32;3.50;;;;;;;11.41;57.33;100195.28;5318767;26;122424;-69
2024/04/26 07:16:02;;;;;;;7.22;3.38;;;;;;;11.45;57.33;100202.13;5322891;26;122669;-66
2024/04/26 07:18:43;;;;;;;6.82;3.42;;;;;;;11.48;57.27;100196.63;5322162;26;112771;-66
2024/04/26 07:21:10;;;;;;;7.25;3.25;;;;;;;11.48;57.29;100191.31;5315056;26;111731;-66
2024/04/26 07:23:38;;;;;;;6.07;3.13;;;;;;;11.50;57.44;100193.88;5329804;26;121470;-66
2024/04/26 07:26:05;;;;;;;5.38;3.03;;;;;;;11.55;57.44;100201.59;5319572;26;122300;-66
2024/04/26 07:28:34;;;;;;;6.15;3.78;;;;;;;11.59;57.63;100208.41;5321498;26;112709;-66
2024/04/26 07:31:29;;;;;;;6.43;3.33;;;;;;;11.63;57.43;100209.94;5321143;26;113325;-66
2024/04/26 07:33:56;;;;;;;6.63;4.03;;;;;;;11.66;57.40;100209.75;5321408;26;122598;-66
2024/04/26 07:36:30;;;;;;;6.45;3.50;;;;;;;11.69;57.44;100209.56;5316397;26;122520;-66
2024/04/26 07:38:57;;;;;;;5.93;3.83;;;;;;;11.73;57.53;100216.38;5309498;26;112436;-67
2024/04/26 07:41:28;;;;;;;6.82;3.50;;;;;;;11.74;57.56;100218.09;5323312;26;112917;-66
2024/04/26 07:44:08;;;;;;;5.32;2.83;;;;;;;11.80;57.61;100217.72;5325335;26;122271;-66
2024/04/26 07:46:35;;;;;;;6.30;3.30;;;;;;;11.83;57.33;100220.19;5333411;26;122673;-66
2024/04/26 07:49:07;;;;;;;6.43;3.53;;;;;;;11.85;57.46;100226.25;5312866;26;112300;-66
2024/04/26 07:51:36;;;;;;;5.63;3.33;;;;;;;11.87;57.41;100224.38;5330419;26;113728;-66
2024/04/26 07:54:32;;;;;;;6.40;3.30;;;;;;;11.90;57.38;100222.50;5333865;26;122319;-66
2024/04/26 07:56:59;;;;;;;5.77;3.37;;;;;;;11.91;57.33;100218.91;5322567;26;121989;-67
2024/04/26 07:59:27;;;;;;;6.93;3.80;;;;;;;11.92;57.11;100224.09;5329399;26;112979;-66
2024/04/26 08:01:54;;;;;;;7.70;3.30;;;;;;;11.94;57.25;100224.91;5331778;26;112635;-66
2024/04/26 08:04:23;;;;;;;7.13;2.90;;;;;;;11.99;57.42;100232.56;5301601;26;123014;-67
2024/04/26 08:06:51;;;;;;;7.95;3.08;;;;;;;12.06;57.25;100239.22;5320844;26;122153;-66
2024/04/26 08:09:24;;;;;;;6.15;3.22;;;;;;;12.10;57.45;100246.03;5318783;26;112973;-66
2024/04/26 08:11:52;;;;;;;7.65;3.80;;;;;;;12.15;57.26;100249.28;5321684;26;112609;-67
2024/04/26 08:14:19;;;;;;;5.68;3.53;;;;;;;12.21;57.27;100248.88;5320287;26;122203;-66
2024/04/26 08:16:46;;;;;;;4.93;2.83;;;;;;;12.23;57.19;100252.28;5320168;26;121985;-67
2024/04/26 08:19:14;;;;;;;6.53;3.20;;;;;;;12.25;56.96;100250.41;5304007;26;112626;-67
2024/04/26 08:21:42;;;;;;;4.95;2.80;;;;;;;12.27;57.12;100248.50;5256523;26;111659;-66
2024/04/26 08:24:09;;;;;;;6.03;3.17;;;;;;;12.29;56.99;100252.88;5323069;26;122711;-67
2024/04/26 08:26:36;;;;;;;7.28;3.28;;;;;;;12.29;56.74;100251.06;5293914;26;122671;-67
2024/04/26 08:29:04;;;;;;;4.80;3.17;;;;;;;12.31;56.92;100253.63;5317506;26;113070;-66
2024/04/26 08:31:31;;;;;;;6.97;3.65;;;;;;;12.35;56.88;100255.16;5282568;26;112394;-67
2024/04/26 08:33:59;;;;;;;6.80;3.97;;;;;;;12.39;56.91;100259.31;5326507;26;123044;-67
2024/04/26 08:36:27;;;;;;;6.90;4.05;;;;;;;12.44;56.79;100265.19;5319538;26;123188;-67
2024/04/26 08:38:54;;;;;;;7.22;4.20;;;;;;;12.48;56.96;100266.72;5321726;26;113317;-67
2024/04/26 08:41:26;;;;;;;9.65;3.85;;;;;;;12.54;57.07;100268.97;5315665;26;113586;-67
2024/04/26 08:43:56;;;;;;;6.32;3.78;;;;;;;12.62;57.06;100269.38;5288315;26;122070;-66
2024/04/26 08:46:23;;;;;;;5.15;3.20;;;;;;;12.69;56.99;100268.97;5321876;26;122405;-67
2024/04/26 08:49:08;;;;;;;7.05;3.58;;;;;;;12.75;56.99;100271.22;5326868;26;112550;-66
2024/04/26 08:51:39;;;;;;;7.65;3.42;;;;;;;12.81;56.77;100268.22;5319711;26;113141;-66
2024/04/26 08:54:07;;;;;;;6.03;3.50;;;;;;;12.90;57.00;100272.06;5321631;26;122237;-67
2024/04/26 08:56:39;;;;;;;5.78;3.25;;;;;;;12.97;57.01;100279.53;5320761;26;122056;-66
2024/04/26 08:59:08;;;;;;;8.48;3.40;;;;;;;13.04;56.42;100275.53;5289704;26;111591;-66
2024/04/26 09:01:36;;;;;;;6.95;3.25;;;;;;;13.11;56.49;100275.13;5325355;26;112897;-67
2024/04/26 09:04:04;;;;;;;6.03;3.28;;;;;;;13.18;56.73;100281.78;5321360;26;122401;-67
2024/04/26 09:06:33;;;;;;;6.80;2.70;;;;;;;13.24;56.51;100278.72;5314401;26;122718;-67
2024/04/26 09:09:02;;;;;;;6.22;3.17;;;;;;;13.28;56.49;100277.56;5318980;26;113398;-67
2024/04/26 09:11:30;;;;;;;5.38;3.42;;;;;;;13.32;56.44;100284.44;5298887;26;111706;-69
2024/04/26 09:13:58;;;;;;;5.15;3.40;;;;;;;13.38;56.19;100292.00;5332458;26;122873;-67
2024/04/26 09:16:29;;;;;;;6.20;3.10;;;;;;;13.45;55.99;100295.13;5280317;26;122466;-66
2024/04/26 09:18:56;;;;;;;5.13;3.10;;;;;;;13.51;56.18;100293.88;5313050;26;113065;-67
2024/04/26 09:21:24;;;;;;;6.63;3.10;;;;;;;13.58;55.96;100295.13;5329875;26;112643;-67
2024/04/26 09:23:51;;;;;;;6.05;3.13;;;;;;;13.63;55.85;100298.34;5323916;26;122255;-67
2024/04/26 09:26:22;;;;;;;6.15;3.53;;;;;;;13.67;55.56;100297.19;5319292;26;122841;-67
2024/04/26 09:28:50;;;;;;;6.38;3.70;;;;;;;13.72;55.51;100297.75;5315868;26;113386;-67
2024/04/26 09:31:18;;;;;;;7.22;3.50;;;;;;;13.74;55.49;100301.16;5313501;26;113447;-67
2024/04/26 09:33:47;;;;;;;6.07;3.50;;;;;;;13.72;55.58;100303.06;5319692;26;122524;-67
2024/04/26 09:36:18;;;;;;;6.63;3.50;;;;;;;13.78;55.33;100301.81;5312441;26;122976;-67
2024/04/26 09:38:47;;;;;;;5.35;3.00;;;;;;;13.85;55.27;100303.09;5325045;26;112859;-67
2024/04/26 09:41:19;;;;;;;5.30;3.13;;;;;;;13.94;55.37;100302.47;5314764;26;112741;-68
2024/04/26 09:43:48;;;;;;;6.72;3.88;;;;;;;14.01;55.11;100306.44;5319070;26;122160;-67
2024/04/26 09:46:26;;;;;;;4.63;3.15;;;;;;;14.09;55.40;100308.56;5308806;26;123035;-67
2024/04/26 09:48:55;;;;;;;7.25;3.40;;;;;;;14.17;55.13;100308.91;5321746;26;113257;-67
2024/04/26 09:51:26;;;;;;;5.60;3.40;;;;;;;14.23;54.85;100312.09;5315928;26;112499;-67
2024/04/26 09:54:07;;;;;;;5.45;3.25;;;;;;;14.27;54.64;100310.94;5316679;26;122274;-67
2024/04/26 09:56:36;;;;;;;8.40;3.25;;;;;;;14.34;54.64;100312.22;5312814;26;122715;-67
2024/04/26 09:59:03;;;;;;;6.05;3.30;;;;;;;14.39;54.89;100312.72;5313517;26;112571;-67
2024/04/26 10:01:33;;;;;;;6.38;3.50;;;;;;;14.47;54.85;100315.72;5315060;26;111612;-67
2024/04/26 10:04:02;;;;;;;5.65;2.90;;;;;;;14.57;54.70;100316.81;5309811;26;122239;-67
2024/04/26 10:06:40;;;;;;;5.75;3.58;;;;;;;14.72;54.64;100319.34;5288560;26;122421;-67
2024/04/26 10:09:12;;;;;;;5.50;3.38;;;;;;;14.84;54.59;100318.47;5279076;26;111408;-67
2024/04/26 10:11:48;;;;;;;4.85;3.05;;;;;;;14.96;54.48;100322.94;5317470;26;112854;-67
2024/04/26 10:14:33;;;;;;;5.22;3.60;;;;;;;15.11;54.30;100330.81;5317107;26;122379;-67
2024/04/26 10:17:09;;;;;;;6.03;3.37;;;;;;;15.24;54.26;100328.94;5313670;26;122130;-67
2024/04/26 10:19:41;;;;;;;4.88;3.03;;;;;;;15.39;54.39;100329.66;5283734;26;113229;-67
2024/04/26 10:22:10;;;;;;;4.78;3.15;;;;;;;15.54;54.17;100325.00;5280567;26;113469;-67
2024/04/26 10:24:44;;;;;;;6.03;2.80;;;;;;;15.67;54.23;100328.44;5317535;26;123607;-67
2024/04/26 10:27:12;;;;;;;5.45;3.25;;;;;;;15.82;54.18;100330.94;5314154;26;120803;-67
2024/04/26 10:29:40;;;;;;;4.43;3.20;;;;;;;15.95;53.59;100326.38;5326876;26;112566;-67
2024/04/26 10:32:08;;;;;;;5.97;3.25;;;;;;;16.08;53.73;100327.16;5284544;26;111581;-68
2024/04/26 10:34:36;;;;;;;6.90;3.47;;;;;;;16.20;53.38;100329.84;5311448;26;122313;-67
2024/04/26 10:37:14;;;;;;;5.72;3.50;;;;;;;16.28;52.81;100327.47;5322602;26;123121;-67
2024/04/26 10:39:42;;;;;;;10.43;3.20;;;;;;;16.39;52.86;100330.16;5328627;26;113171;-67
2024/04/26 10:42:10;;;;;;;4.35;3.05;;;;;;;16.49;52.81;100331.13;5311676;26;112677;-67
2024/04/26 10:44:39;;;;;;;5.13;3.15;;;;;;;16.61;52.51;100336.47;5318968;26;123123;-67
2024/04/26 10:47:07;;;;;;;5.53;3.13;;;;;;;16.75;52.28;100341.59;5317663;26;123707;-67
2024/04/26 10:49:34;;;;;;;6.93;3.20;;;;;;;16.84;52.11;100330.22;5313431;26;112825;-67
2024/04/26 10:52:04;;;;;;;5.43;2.97;;;;;;;16.93;51.95;100328.59;5320483;26;113397;-67
2024/04/26 10:54:33;;;;;;;4.85;3.13;;;;;;;17.00;51.85;100334.31;5318215;26;122633;-67
2024/04/26 10:57:01;;;;;;;4.40;2.85;;;;;;;17.09;52.07;100328.25;5292494;26;121953;-67
2024/04/26 10:59:30;;;;;;;3.83;2.70;;;;;;;17.18;51.86;100332.84;5316503;26;113257;-67
2024/04/26 11:02:00;;;;;;;5.18;3.40;;;;;;;17.26;51.32;100330.38;5314836;26;112535;-67
2024/04/26 11:04:35;;;;;;;5.53;3.38;;;;;;;17.35;51.27;100327.94;5318146;26;122325;-67
2024/04/26 11:07:12;;;;;;;4.40;3.42;;;;;;;17.39;51.08;100334.75;5311656;26;120927;-67
2024/04/26 11:09:49;;;;;;;5.53;3.30;;;;;;;17.45;50.72;100334.25;5279228;26;113320;-67
2024/04/26 11:12:17;;;;;;;5.30;3.20;;;;;;;17.52;50.63;100335.44;5317843;26;113364;-68
2024/04/26 11:14:45;;;;;;;4.47;2.97;;;;;;;17.53;50.08;100342.47;5317696;26;120756;-67
2024/04/26 11:17:13;;;;;;;5.50;3.05;;;;;;;17.57;50.02;100333.22;5323163;26;122500;-67